sensor_id;sensor_type;location;lat;lon;timestamp;temperature;humidity
32322;DHT22;61553;48.994;8.940;2023-12-22T00:01:41;8.30;99.90
32322;DHT22;61553;48.994;8.940;2023-12-22T00:04:07;8.30;99.90
32322;DHT22;61553;48.994;8.940;2023-12-22T00:06:33;8.30;99.90
32322;DHT22;61553;48.994;8.940;2023-12-22T00:08:58;8.30;99.90
32322;DHT22;61553;48.994;8.940;2023-12-22T00:11:24;8.30;99.90
32322;DHT22;61553;48.994;8.940;2023-12-22T00:13:50;8.30;99.90
32322;DHT22;61553;48.994;8.940;2023-12-22T00:16:15;8.30;99.90
32322;DHT22;61553;48.994;8.940;2023-12-22T00:18:41;8.20;99.90
32322;DHT22;61553;48.994;8.940;2023-12-22T00:21:10;8.00;99.90
32322;DHT22;61553;48.994;8.940;2023-12-22T00:23:36;7.80;99.90
32322;DHT22;61553;48.994;8.940;2023-12-22T00:26:03;7.80;99.90
32322;DHT22;61553;48.994;8.940;2023-12-22T00:28:29;7.70;99.90
32322;DHT22;61553;48.994;8.940;2023-12-22T00:30:57;7.50;99.90
32322;DHT22;61553;48.994;8.940;2023-12-22T00:33:23;7.40;99.90
32322;DHT22;61553;48.994;8.940;2023-12-22T00:35:49;7.20;99.90
32322;DHT22;61553;48.994;8.940;2023-12-22T00:38:14;7.10;99.90
32322;DHT22;61553;48.994;8.940;2023-12-22T00:40:40;6.90;99.90
32322;DHT22;61553;48.994;8.940;2023-12-22T00:43:06;6.80;99.90
32322;DHT22;61553;48.994;8.940;2023-12-22T00:45:31;6.70;99.90
32322;DHT22;61553;48.994;8.940;2023-12-22T00:47:57;6.70;99.90
32322;DHT22;61553;48.994;8.940;2023-12-22T00:50:23;6.50;99.90
32322;DHT22;61553;48.994;8.940;2023-12-22T00:52:48;6.40;99.90
32322;DHT22;61553;48.994;8.940;2023-12-22T00:55:14;6.40;99.90
32322;DHT22;61553;48.994;8.940;2023-12-22T00:57:40;6.40;99.90
32322;DHT22;61553;48.994;8.940;2023-12-22T01:00:06;6.40;99.90
32322;DHT22;61553;48.994;8.940;2023-12-22T01:02:36;6.30;99.90
32322;DHT22;61553;48.994;8.940;2023-12-22T01:05:01;6.40;99.90
32322;DHT22;61553;48.994;8.940;2023-12-22T01:07:27;6.30;99.90
32322;DHT22;61553;48.994;8.940;2023-12-22T01:09:52;6.30;99.90
32322;DHT22;61553;48.994;8.940;2023-12-22T01:12:19;6.30;99.90
32322;DHT22;61553;48.994;8.940;2023-12-22T01:14:44;6.30;99.90
32322;DHT22;61553;48.994;8.940;2023-12-22T01:17:11;6.30;99.90
32322;DHT22;61553;48.994;8.940;2023-12-22T01:19:36;6.40;99.90
32322;DHT22;61553;48.994;8.940;2023-12-22T01:22:02;6.40;99.90
32322;DHT22;61553;48.994;8.940;2023-12-22T01:24:28;6.50;99.90
32322;DHT22;61553;48.994;8.940;2023-12-22T01:26:53;6.50;99.90
32322;DHT22;61553;48.994;8.940;2023-12-22T01:29:19;6.60;99.90
32322;DHT22;61553;48.994;8.940;2023-12-22T01:31:45;6.70;99.90
32322;DHT22;61553;48.994;8.940;2023-12-22T01:34:10;6.70;99.90
32322;DHT22;61553;48.994;8.940;2023-12-22T01:36:36;6.80;99.90
32322;DHT22;61553;48.994;8.940;2023-12-22T01:39:02;6.90;99.90
32322;DHT22;61553;48.994;8.940;2023-12-22T01:41:28;6.90;99.90
32322;DHT22;61553;48.994;8.940;2023-12-22T01:43:54;7.10;99.90
32322;DHT22;61553;48.994;8.940;2023-12-22T01:46:20;7.10;99.90
32322;DHT22;61553;48.994;8.940;2023-12-22T01:48:46;7.10;99.90
32322;DHT22;61553;48.994;8.940;2023-12-22T01:51:12;7.20;99.90
32322;DHT22;61553;48.994;8.940;2023-12-22T01:53:38;7.20;99.90
32322;DHT22;61553;48.994;8.940;2023-12-22T01:56:04;7.30;99.90
32322;DHT22;61553;48.994;8.940;2023-12-22T01:58:33;7.30;99.90
32322;DHT22;61553;48.994;8.940;2023-12-22T02:01:01;7.30;99.90
32322;DHT22;61553;48.994;8.940;2023-12-22T02:03:27;7.30;99.90
32322;DHT22;61553;48.994;8.940;2023-12-22T02:05:53;7.40;99.90
32322;DHT22;61553;48.994;8.940;2023-12-22T02:08:21;7.40;99.90
32322;DHT22;61553;48.994;8.940;2023-12-22T02:10:48;7.30;99.90
32322;DHT22;61553;48.994;8.940;2023-12-22T02:13:13;7.30;99.90
32322;DHT22;61553;48.994;8.940;2023-12-22T02:15:40;7.30;99.90
32322;DHT22;61553;48.994;8.940;2023-12-22T02:18:35;7.40;99.90
32322;DHT22;61553;48.994;8.940;2023-12-22T02:21:04;7.40;99.90
32322;DHT22;61553;48.994;8.940;2023-12-22T02:23:29;7.50;99.90
32322;DHT22;61553;48.994;8.940;2023-12-22T02:26:02;7.40;99.90
32322;DHT22;61553;48.994;8.940;2023-12-22T02:28:31;7.40;99.90
32322;DHT22;61553;48.994;8.940;2023-12-22T02:31:13;7.40;99.90
32322;DHT22;61553;48.994;8.940;2023-12-22T02:33:42;7.40;99.90
32322;DHT22;61553;48.994;8.940;2023-12-22T02:36:08;7.40;99.90
32322;DHT22;61553;48.994;8.940;2023-12-22T02:38:35;7.40;99.90
32322;DHT22;61553;48.994;8.940;2023-12-22T02:41:02;7.50;99.90
32322;DHT22;61553;48.994;8.940;2023-12-22T02:43:28;7.40;99.90
32322;DHT22;61553;48.994;8.940;2023-12-22T02:45:54;7.40;99.90
32322;DHT22;61553;48.994;8.940;2023-12-22T02:48:19;7.40;99.90
32322;DHT22;61553;48.994;8.940;2023-12-22T02:50:45;7.40;99.90
32322;DHT22;61553;48.994;8.940;2023-12-22T02:53:10;7.40;99.90
32322;DHT22;61553;48.994;8.940;2023-12-22T02:55:36;7.40;99.90
32322;DHT22;61553;48.994;8.940;2023-12-22T02:58:02;7.50;99.90
32322;DHT22;61553;48.994;8.940;2023-12-22T03:00:27;7.50;99.90
32322;DHT22;61553;48.994;8.940;2023-12-22T03:02:53;7.50;99.90
32322;DHT22;61553;48.994;8.940;2023-12-22T03:05:18;7.60;99.90
32322;DHT22;61553;48.994;8.940;2023-12-22T03:07:44;7.60;99.90
32322;DHT22;61553;48.994;8.940;2023-12-22T03:10:09;7.60;99.90
32322;DHT22;61553;48.994;8.940;2023-12-22T03:12:35;7.60;99.90
32322;DHT22;61553;48.994;8.940;2023-12-22T03:15:01;7.60;99.90
32322;DHT22;61553;48.994;8.940;2023-12-22T03:17:27;7.60;99.90
32322;DHT22;61553;48.994;8.940;2023-12-22T03:19:52;7.60;99.90
32322;DHT22;61553;48.994;8.940;2023-12-22T03:22:18;7.60;99.90
32322;DHT22;61553;48.994;8.940;2023-12-22T03:24:44;7.70;99.90
32322;DHT22;61553;48.994;8.940;2023-12-22T03:27:10;7.70;99.90
32322;DHT22;61553;48.994;8.940;2023-12-22T03:29:35;7.70;99.90
32322;DHT22;61553;48.994;8.940;2023-12-22T03:32:01;7.80;99.90
32322;DHT22;61553;48.994;8.940;2023-12-22T03:34:26;7.80;99.90
32322;DHT22;61553;48.994;8.940;2023-12-22T03:36:52;7.80;99.90
32322;DHT22;61553;48.994;8.940;2023-12-22T03:39:18;7.80;99.90
32322;DHT22;61553;48.994;8.940;2023-12-22T03:41:43;7.90;99.90
32322;DHT22;61553;48.994;8.940;2023-12-22T03:44:09;7.90;99.90
32322;DHT22;61553;48.994;8.940;2023-12-22T03:46:35;7.80;99.90
32322;DHT22;61553;48.994;8.940;2023-12-22T03:49:00;7.90;99.90
32322;DHT22;61553;48.994;8.940;2023-12-22T03:51:26;7.90;99.90
32322;DHT22;61553;48.994;8.940;2023-12-22T03:53:51;7.90;99.90
32322;DHT22;61553;48.994;8.940;2023-12-22T03:56:17;7.80;99.90
32322;DHT22;61553;48.994;8.940;2023-12-22T03:58:44;7.70;99.90
32322;DHT22;61553;48.994;8.940;2023-12-22T04:01:14;7.50;99.90
32322;DHT22;61553;48.994;8.940;2023-12-22T04:03:39;7.20;99.90
32322;DHT22;61553;48.994;8.940;2023-12-22T04:06:05;7.00;99.90
32322;DHT22;61553;48.994;8.940;2023-12-22T04:08:31;6.60;99.90
32322;DHT22;61553;48.994;8.940;2023-12-22T04:10:56;6.60;99.90
32322;DHT22;61553;48.994;8.940;2023-12-22T04:13:22;6.50;99.90
32322;DHT22;61553;48.994;8.940;2023-12-22T04:15:48;6.40;99.90
32322;DHT22;61553;48.994;8.940;2023-12-22T04:18:13;6.40;99.90
32322;DHT22;61553;48.994;8.940;2023-12-22T04:20:39;6.40;99.90
32322;DHT22;61553;48.994;8.940;2023-12-22T04:23:05;6.30;99.90
32322;DHT22;61553;48.994;8.940;2023-12-22T04:25:30;6.30;99.90
32322;DHT22;61553;48.994;8.940;2023-12-22T04:27:56;6.30;99.90
32322;DHT22;61553;48.994;8.940;2023-12-22T04:30:21;6.30;99.90
32322;DHT22;61553;48.994;8.940;2023-12-22T04:32:47;6.30;99.90
32322;DHT22;61553;48.994;8.940;2023-12-22T04:35:13;6.30;99.90
32322;DHT22;61553;48.994;8.940;2023-12-22T04:37:38;6.40;99.90
32322;DHT22;61553;48.994;8.940;2023-12-22T04:40:04;6.40;99.90
32322;DHT22;61553;48.994;8.940;2023-12-22T04:42:30;6.40;99.90
32322;DHT22;61553;48.994;8.940;2023-12-22T04:44:56;6.40;99.90
32322;DHT22;61553;48.994;8.940;2023-12-22T04:47:21;6.40;99.90
32322;DHT22;61553;48.994;8.940;2023-12-22T04:49:47;6.40;99.90
32322;DHT22;61553;48.994;8.940;2023-12-22T04:52:12;6.40;99.90
32322;DHT22;61553;48.994;8.940;2023-12-22T04:54:38;6.50;99.90
32322;DHT22;61553;48.994;8.940;2023-12-22T04:57:04;6.50;99.90
32322;DHT22;61553;48.994;8.940;2023-12-22T04:59:30;6.50;99.90
32322;DHT22;61553;48.994;8.940;2023-12-22T05:01:56;6.50;99.90
32322;DHT22;61553;48.994;8.940;2023-12-22T05:04:21;6.60;99.90
32322;DHT22;61553;48.994;8.940;2023-12-22T05:06:48;6.60;99.90
32322;DHT22;61553;48.994;8.940;2023-12-22T05:09:13;6.70;99.90
32322;DHT22;61553;48.994;8.940;2023-12-22T05:11:39;6.70;99.90
32322;DHT22;61553;48.994;8.940;2023-12-22T05:14:05;6.70;99.90
32322;DHT22;61553;48.994;8.940;2023-12-22T05:16:31;6.80;99.90
32322;DHT22;61553;48.994;8.940;2023-12-22T05:18:57;6.80;99.90
32322;DHT22;61553;48.994;8.940;2023-12-22T05:21:23;6.90;99.90
32322;DHT22;61553;48.994;8.940;2023-12-22T05:23:49;6.90;99.90
32322;DHT22;61553;48.994;8.940;2023-12-22T05:26:19;6.90;99.90
32322;DHT22;61553;48.994;8.940;2023-12-22T05:28:44;6.90;99.90
32322;DHT22;61553;48.994;8.940;2023-12-22T05:31:10;7.00;99.90
32322;DHT22;61553;48.994;8.940;2023-12-22T05:33:36;6.90;99.90
32322;DHT22;61553;48.994;8.940;2023-12-22T05:36:01;7.00;99.90
32322;DHT22;61553;48.994;8.940;2023-12-22T05:38:27;7.00;99.90
32322;DHT22;61553;48.994;8.940;2023-12-22T05:40:53;7.00;99.90
32322;DHT22;61553;48.994;8.940;2023-12-22T05:43:18;7.10;99.90
32322;DHT22;61553;48.994;8.940;2023-12-22T05:45:44;7.10;99.90
32322;DHT22;61553;48.994;8.940;2023-12-22T05:48:09;7.20;99.90
32322;DHT22;61553;48.994;8.940;2023-12-22T05:50:35;7.20;99.90
32322;DHT22;61553;48.994;8.940;2023-12-22T05:53:01;7.30;99.90
32322;DHT22;61553;48.994;8.940;2023-12-22T05:55:26;7.30;99.90
32322;DHT22;61553;48.994;8.940;2023-12-22T05:57:52;7.40;99.90
32322;DHT22;61553;48.994;8.940;2023-12-22T06:00:19;7.30;99.90
32322;DHT22;61553;48.994;8.940;2023-12-22T06:02:45;7.40;99.90
32322;DHT22;61553;48.994;8.940;2023-12-22T06:05:10;7.40;99.90
32322;DHT22;61553;48.994;8.940;2023-12-22T06:07:36;7.40;99.90
32322;DHT22;61553;48.994;8.940;2023-12-22T06:10:02;7.40;99.90
32322;DHT22;61553;48.994;8.940;2023-12-22T06:12:27;7.40;99.90
32322;DHT22;61553;48.994;8.940;2023-12-22T06:14:53;7.50;99.90
32322;DHT22;61553;48.994;8.940;2023-12-22T06:17:19;7.50;99.90
32322;DHT22;61553;48.994;8.940;2023-12-22T06:19:45;7.50;99.90
32322;DHT22;61553;48.994;8.940;2023-12-22T06:22:10;7.50;99.90
32322;DHT22;61553;48.994;8.940;2023-12-22T06:24:36;7.60;99.90
32322;DHT22;61553;48.994;8.940;2023-12-22T06:27:02;7.60;99.90
32322;DHT22;61553;48.994;8.940;2023-12-22T06:29:27;7.70;99.90
32322;DHT22;61553;48.994;8.940;2023-12-22T06:31:53;7.60;99.90
32322;DHT22;61553;48.994;8.940;2023-12-22T06:34:18;7.60;99.90
32322;DHT22;61553;48.994;8.940;2023-12-22T06:36:44;7.70;99.90
32322;DHT22;61553;48.994;8.940;2023-12-22T06:39:10;7.70;99.90
32322;DHT22;61553;48.994;8.940;2023-12-22T06:41:36;7.70;99.90
32322;DHT22;61553;48.994;8.940;2023-12-22T06:44:01;7.70;99.90
32322;DHT22;61553;48.994;8.940;2023-12-22T06:46:28;7.70;99.90
32322;DHT22;61553;48.994;8.940;2023-12-22T06:48:55;7.80;99.90
32322;DHT22;61553;48.994;8.940;2023-12-22T06:51:22;7.80;99.90
32322;DHT22;61553;48.994;8.940;2023-12-22T06:53:49;7.80;99.90
32322;DHT22;61553;48.994;8.940;2023-12-22T06:58:41;7.80;99.90
32322;DHT22;61553;48.994;8.940;2023-12-22T07:01:06;7.80;99.90
32322;DHT22;61553;48.994;8.940;2023-12-22T07:03:32;7.80;99.90
32322;DHT22;61553;48.994;8.940;2023-12-22T07:05:57;7.80;99.90
32322;DHT22;61553;48.994;8.940;2023-12-22T07:08:23;7.80;99.90
32322;DHT22;61553;48.994;8.940;2023-12-22T07:10:49;7.80;99.90
32322;DHT22;61553;48.994;8.940;2023-12-22T07:13:14;7.80;99.90
32322;DHT22;61553;48.994;8.940;2023-12-22T07:15:40;7.80;99.90
32322;DHT22;61553;48.994;8.940;2023-12-22T07:18:06;7.80;99.90
32322;DHT22;61553;48.994;8.940;2023-12-22T07:20:31;7.80;99.90
32322;DHT22;61553;48.994;8.940;2023-12-22T07:22:57;7.80;99.90
32322;DHT22;61553;48.994;8.940;2023-12-22T07:25:22;7.70;99.90
32322;DHT22;61553;48.994;8.940;2023-12-22T07:27:48;7.70;99.90
32322;DHT22;61553;48.994;8.940;2023-12-22T07:30:14;7.70;99.90
32322;DHT22;61553;48.994;8.940;2023-12-22T07:32:43;7.70;99.90
32322;DHT22;61553;48.994;8.940;2023-12-22T07:35:09;7.80;99.90
32322;DHT22;61553;48.994;8.940;2023-12-22T07:37:38;7.80;99.90
32322;DHT22;61553;48.994;8.940;2023-12-22T07:40:04;7.70;99.90
32322;DHT22;61553;48.994;8.940;2023-12-22T07:42:30;7.80;99.90
32322;DHT22;61553;48.994;8.940;2023-12-22T07:44:55;7.80;99.90
32322;DHT22;61553;48.994;8.940;2023-12-22T07:47:21;7.80;99.90
32322;DHT22;61553;48.994;8.940;2023-12-22T07:49:46;7.80;99.90
32322;DHT22;61553;48.994;8.940;2023-12-22T07:52:15;7.70;99.90
32322;DHT22;61553;48.994;8.940;2023-12-22T07:54:40;7.70;99.90
32322;DHT22;61553;48.994;8.940;2023-12-22T07:57:06;7.70;99.90
32322;DHT22;61553;48.994;8.940;2023-12-22T07:59:32;7.60;99.90
32322;DHT22;61553;48.994;8.940;2023-12-22T08:01:57;7.50;99.90
32322;DHT22;61553;48.994;8.940;2023-12-22T08:04:23;7.40;99.90
32322;DHT22;61553;48.994;8.940;2023-12-22T08:06:49;7.30;99.90
32322;DHT22;61553;48.994;8.940;2023-12-22T08:09:14;7.30;99.90
32322;DHT22;61553;48.994;8.940;2023-12-22T08:11:40;7.20;99.90
32322;DHT22;61553;48.994;8.940;2023-12-22T08:14:06;7.10;99.90
32322;DHT22;61553;48.994;8.940;2023-12-22T08:16:31;7.10;99.90
32322;DHT22;61553;48.994;8.940;2023-12-22T08:18:58;7.10;99.90
32322;DHT22;61553;48.994;8.940;2023-12-22T08:21:23;7.10;99.90
32322;DHT22;61553;48.994;8.940;2023-12-22T08:23:49;7.10;99.90
32322;DHT22;61553;48.994;8.940;2023-12-22T08:26:15;7.10;99.90
32322;DHT22;61553;48.994;8.940;2023-12-22T08:28:43;7.10;99.90
32322;DHT22;61553;48.994;8.940;2023-12-22T08:31:08;7.10;99.90
32322;DHT22;61553;48.994;8.940;2023-12-22T08:33:34;7.10;99.90
32322;DHT22;61553;48.994;8.940;2023-12-22T08:36:00;7.10;99.90
32322;DHT22;61553;48.994;8.940;2023-12-22T08:38:25;7.20;99.90
32322;DHT22;61553;48.994;8.940;2023-12-22T08:40:53;7.20;99.90
32322;DHT22;61553;48.994;8.940;2023-12-22T08:43:19;7.20;99.90
32322;DHT22;61553;48.994;8.940;2023-12-22T08:45:45;7.20;99.90
32322;DHT22;61553;48.994;8.940;2023-12-22T08:48:11;7.10;99.90
32322;DHT22;61553;48.994;8.940;2023-12-22T08:50:36;7.10;99.90
32322;DHT22;61553;48.994;8.940;2023-12-22T08:53:02;7.10;99.90
32322;DHT22;61553;48.994;8.940;2023-12-22T08:55:27;7.10;99.90
32322;DHT22;61553;48.994;8.940;2023-12-22T08:57:53;7.10;99.90
32322;DHT22;61553;48.994;8.940;2023-12-22T09:00:19;7.00;99.90
32322;DHT22;61553;48.994;8.940;2023-12-22T09:02:45;7.00;99.90
32322;DHT22;61553;48.994;8.940;2023-12-22T09:05:10;7.00;99.90
32322;DHT22;61553;48.994;8.940;2023-12-22T09:07:36;7.00;99.90
32322;DHT22;61553;48.994;8.940;2023-12-22T09:10:02;7.10;99.90
32322;DHT22;61553;48.994;8.940;2023-12-22T09:12:29;7.10;99.90
32322;DHT22;61553;48.994;8.940;2023-12-22T09:14:55;7.10;99.90
32322;DHT22;61553;48.994;8.940;2023-12-22T09:17:21;7.10;99.90
32322;DHT22;61553;48.994;8.940;2023-12-22T09:19:46;7.10;99.90
32322;DHT22;61553;48.994;8.940;2023-12-22T09:22:12;7.10;99.90
32322;DHT22;61553;48.994;8.940;2023-12-22T09:24:38;7.20;99.90
32322;DHT22;61553;48.994;8.940;2023-12-22T09:27:04;7.20;99.90
32322;DHT22;61553;48.994;8.940;2023-12-22T09:29:30;7.20;99.90
32322;DHT22;61553;48.994;8.940;2023-12-22T09:31:59;7.30;99.90
32322;DHT22;61553;48.994;8.940;2023-12-22T09:34:26;7.30;99.90
32322;DHT22;61553;48.994;8.940;2023-12-22T09:36:52;7.30;99.90
32322;DHT22;61553;48.994;8.940;2023-12-22T09:39:18;7.40;99.90
32322;DHT22;61553;48.994;8.940;2023-12-22T09:41:48;7.40;99.90
32322;DHT22;61553;48.994;8.940;2023-12-22T09:44:16;7.50;99.90
32322;DHT22;61553;48.994;8.940;2023-12-22T09:46:44;7.60;99.90
32322;DHT22;61553;48.994;8.940;2023-12-22T09:49:10;7.70;99.90
32322;DHT22;61553;48.994;8.940;2023-12-22T09:51:37;7.80;99.90
32322;DHT22;61553;48.994;8.940;2023-12-22T09:54:04;7.80;99.90
32322;DHT22;61553;48.994;8.940;2023-12-22T09:56:31;7.90;99.90
32322;DHT22;61553;48.994;8.940;2023-12-22T09:58:57;8.00;99.90
32322;DHT22;61553;48.994;8.940;2023-12-22T10:01:23;8.00;99.90
32322;DHT22;61553;48.994;8.940;2023-12-22T10:03:49;8.00;99.90
32322;DHT22;61553;48.994;8.940;2023-12-22T10:06:15;8.00;99.90
32322;DHT22;61553;48.994;8.940;2023-12-22T10:08:43;8.10;99.90
32322;DHT22;61553;48.994;8.940;2023-12-22T10:11:09;8.10;99.90
32322;DHT22;61553;48.994;8.940;2023-12-22T10:13:36;8.20;99.90
32322;DHT22;61553;48.994;8.940;2023-12-22T10:16:05;8.20;99.90
32322;DHT22;61553;48.994;8.940;2023-12-22T10:18:32;8.30;99.90
32322;DHT22;61553;48.994;8.940;2023-12-22T10:20:58;8.30;99.90
32322;DHT22;61553;48.994;8.940;2023-12-22T10:23:25;8.30;99.90
32322;DHT22;61553;48.994;8.940;2023-12-22T10:25:51;8.30;99.90
32322;DHT22;61553;48.994;8.940;2023-12-22T10:28:16;8.30;99.90
32322;DHT22;61553;48.994;8.940;2023-12-22T10:30:44;8.30;99.90
32322;DHT22;61553;48.994;8.940;2023-12-22T10:33:11;8.30;99.90
32322;DHT22;61553;48.994;8.940;2023-12-22T10:35:37;8.30;99.90
32322;DHT22;61553;48.994;8.940;2023-12-22T10:38:04;8.30;99.90
32322;DHT22;61553;48.994;8.940;2023-12-22T10:40:29;8.30;99.90
32322;DHT22;61553;48.994;8.940;2023-12-22T10:42:55;8.30;99.90
32322;DHT22;61553;48.994;8.940;2023-12-22T10:45:21;8.20;99.90
32322;DHT22;61553;48.994;8.940;2023-12-22T10:47:49;8.30;99.90
32322;DHT22;61553;48.994;8.940;2023-12-22T10:50:19;8.30;99.90
32322;DHT22;61553;48.994;8.940;2023-12-22T10:52:51;8.30;99.90
32322;DHT22;61553;48.994;8.940;2023-12-22T10:55:17;8.30;99.90
32322;DHT22;61553;48.994;8.940;2023-12-22T10:57:45;8.30;99.90
32322;DHT22;61553;48.994;8.940;2023-12-22T11:00:12;8.20;99.90
32322;DHT22;61553;48.994;8.940;2023-12-22T11:02:42;8.20;99.90
32322;DHT22;61553;48.994;8.940;2023-12-22T11:05:10;8.20;99.90
32322;DHT22;61553;48.994;8.940;2023-12-22T11:07:37;8.20;99.90
32322;DHT22;61553;48.994;8.940;2023-12-22T11:10:06;8.20;99.90
32322;DHT22;61553;48.994;8.940;2023-12-22T11:12:36;8.20;99.90
32322;DHT22;61553;48.994;8.940;2023-12-22T11:15:03;8.20;99.90
32322;DHT22;61553;48.994;8.940;2023-12-22T11:17:32;8.10;99.90
32322;DHT22;61553;48.994;8.940;2023-12-22T11:19:58;8.10;99.90
32322;DHT22;61553;48.994;8.940;2023-12-22T11:22:25;8.10;99.90
32322;DHT22;61553;48.994;8.940;2023-12-22T11:24:51;8.10;99.90
32322;DHT22;61553;48.994;8.940;2023-12-22T11:27:20;8.10;99.90
32322;DHT22;61553;48.994;8.940;2023-12-22T11:29:50;8.10;99.90
32322;DHT22;61553;48.994;8.940;2023-12-22T11:32:17;8.10;99.90
32322;DHT22;61553;48.994;8.940;2023-12-22T11:34:44;8.20;99.90
32322;DHT22;61553;48.994;8.940;2023-12-22T11:37:11;8.20;99.90
32322;DHT22;61553;48.994;8.940;2023-12-22T11:39:41;8.30;99.90
32322;DHT22;61553;48.994;8.940;2023-12-22T11:42:10;8.30;99.90
32322;DHT22;61553;48.994;8.940;2023-12-22T11:44:36;8.30;99.90
32322;DHT22;61553;48.994;8.940;2023-12-22T11:47:06;8.30;99.90
32322;DHT22;61553;48.994;8.940;2023-12-22T11:49:36;8.30;99.90
32322;DHT22;61553;48.994;8.940;2023-12-22T11:52:13;8.30;99.90
32322;DHT22;61553;48.994;8.940;2023-12-22T11:54:52;8.30;99.90
32322;DHT22;61553;48.994;8.940;2023-12-22T11:57:45;8.20;99.90
32322;DHT22;61553;48.994;8.940;2023-12-22T12:03:06;8.30;99.90
32322;DHT22;61553;48.994;8.940;2023-12-22T12:05:32;8.30;99.90
32322;DHT22;61553;48.994;8.940;2023-12-22T12:08:06;8.30;99.90
32322;DHT22;61553;48.994;8.940;2023-12-22T12:13:11;8.40;99.90
32322;DHT22;61553;48.994;8.940;2023-12-22T12:15:38;8.30;99.90
32322;DHT22;61553;48.994;8.940;2023-12-22T12:18:05;8.40;99.90
32322;DHT22;61553;48.994;8.940;2023-12-22T12:20:32;8.40;99.90
32322;DHT22;61553;48.994;8.940;2023-12-22T12:22:57;8.40;99.90
32322;DHT22;61553;48.994;8.940;2023-12-22T12:25:24;8.40;99.90
32322;DHT22;61553;48.994;8.940;2023-12-22T12:28:03;8.40;99.90
32322;DHT22;61553;48.994;8.940;2023-12-22T12:30:30;8.30;99.90
32322;DHT22;61553;48.994;8.940;2023-12-22T12:32:59;8.30;99.90
32322;DHT22;61553;48.994;8.940;2023-12-22T12:35:28;8.30;99.90
32322;DHT22;61553;48.994;8.940;2023-12-22T12:37:55;8.30;99.90
32322;DHT22;61553;48.994;8.940;2023-12-22T12:40:23;8.40;99.90
32322;DHT22;61553;48.994;8.940;2023-12-22T12:42:50;8.40;99.90
32322;DHT22;61553;48.994;8.940;2023-12-22T12:45:22;8.40;99.90
32322;DHT22;61553;48.994;8.940;2023-12-22T12:48:03;8.40;99.90
32322;DHT22;61553;48.994;8.940;2023-12-22T12:50:29;8.50;99.90
32322;DHT22;61553;48.994;8.940;2023-12-22T12:52:56;8.50;99.90
32322;DHT22;61553;48.994;8.940;2023-12-22T12:55:24;8.50;99.90
32322;DHT22;61553;48.994;8.940;2023-12-22T12:57:53;8.60;99.90
32322;DHT22;61553;48.994;8.940;2023-12-22T13:00:32;8.60;99.90
32322;DHT22;61553;48.994;8.940;2023-12-22T13:03:04;8.60;99.90
32322;DHT22;61553;48.994;8.940;2023-12-22T13:05:31;8.60;99.90
32322;DHT22;61553;48.994;8.940;2023-12-22T13:08:11;8.70;99.90
32322;DHT22;61553;48.994;8.940;2023-12-22T13:10:37;8.60;99.90
32322;DHT22;61553;48.994;8.940;2023-12-22T13:13:03;8.70;99.90
32322;DHT22;61553;48.994;8.940;2023-12-22T13:15:29;8.70;99.90
32322;DHT22;61553;48.994;8.940;2023-12-22T13:17:55;8.70;99.90
32322;DHT22;61553;48.994;8.940;2023-12-22T13:20:22;8.70;99.90
32322;DHT22;61553;48.994;8.940;2023-12-22T13:22:48;8.70;99.90
32322;DHT22;61553;48.994;8.940;2023-12-22T13:25:14;8.70;99.90
32322;DHT22;61553;48.994;8.940;2023-12-22T13:27:50;8.70;99.90
32322;DHT22;61553;48.994;8.940;2023-12-22T13:30:36;8.70;99.90
32322;DHT22;61553;48.994;8.940;2023-12-22T13:33:03;8.80;99.90
32322;DHT22;61553;48.994;8.940;2023-12-22T13:35:29;8.80;99.90
32322;DHT22;61553;48.994;8.940;2023-12-22T13:37:55;8.90;99.90
32322;DHT22;61553;48.994;8.940;2023-12-22T13:40:21;8.90;99.90
32322;DHT22;61553;48.994;8.940;2023-12-22T13:42:57;8.90;99.90
32322;DHT22;61553;48.994;8.940;2023-12-22T13:45:25;8.90;99.90
32322;DHT22;61553;48.994;8.940;2023-12-22T13:47:51;8.90;99.90
32322;DHT22;61553;48.994;8.940;2023-12-22T13:50:17;8.90;99.90
32322;DHT22;61553;48.994;8.940;2023-12-22T13:52:44;8.90;99.90
32322;DHT22;61553;48.994;8.940;2023-12-22T13:55:14;8.90;99.90
32322;DHT22;61553;48.994;8.940;2023-12-22T13:57:44;8.90;99.90
32322;DHT22;61553;48.994;8.940;2023-12-22T14:02:45;8.90;99.90
32322;DHT22;61553;48.994;8.940;2023-12-22T14:05:11;8.90;99.90
32322;DHT22;61553;48.994;8.940;2023-12-22T14:07:37;8.90;99.90
32322;DHT22;61553;48.994;8.940;2023-12-22T14:10:07;8.80;99.90
32322;DHT22;61553;48.994;8.940;2023-12-22T14:12:32;8.70;99.90
32322;DHT22;61553;48.994;8.940;2023-12-22T14:14:58;8.70;99.90
32322;DHT22;61553;48.994;8.940;2023-12-22T14:17:24;8.70;99.90
32322;DHT22;61553;48.994;8.940;2023-12-22T14:19:50;8.70;99.90
32322;DHT22;61553;48.994;8.940;2023-12-22T14:22:15;8.80;99.90
32322;DHT22;61553;48.994;8.940;2023-12-22T14:24:42;8.80;99.90
32322;DHT22;61553;48.994;8.940;2023-12-22T14:27:08;8.70;99.90
32322;DHT22;61553;48.994;8.940;2023-12-22T14:29:34;8.80;99.90
32322;DHT22;61553;48.994;8.940;2023-12-22T14:32:02;8.80;99.90
32322;DHT22;61553;48.994;8.940;2023-12-22T14:34:27;8.90;99.90
32322;DHT22;61553;48.994;8.940;2023-12-22T14:36:53;8.90;99.90
32322;DHT22;61553;48.994;8.940;2023-12-22T14:39:19;9.00;99.90
32322;DHT22;61553;48.994;8.940;2023-12-22T14:41:44;9.00;99.90
32322;DHT22;61553;48.994;8.940;2023-12-22T14:44:12;9.10;99.90
32322;DHT22;61553;48.994;8.940;2023-12-22T14:46:40;9.10;99.90
32322;DHT22;61553;48.994;8.940;2023-12-22T14:49:06;9.10;99.90
32322;DHT22;61553;48.994;8.940;2023-12-22T14:51:39;9.10;99.90
32322;DHT22;61553;48.994;8.940;2023-12-22T14:54:07;9.00;99.90
32322;DHT22;61553;48.994;8.940;2023-12-22T14:56:40;9.10;99.90
32322;DHT22;61553;48.994;8.940;2023-12-22T14:59:09;9.10;99.90
32322;DHT22;61553;48.994;8.940;2023-12-22T15:01:35;9.20;99.90
32322;DHT22;61553;48.994;8.940;2023-12-22T15:04:01;9.10;99.90
32322;DHT22;61553;48.994;8.940;2023-12-22T15:06:28;9.20;99.90
32322;DHT22;61553;48.994;8.940;2023-12-22T15:08:54;9.20;99.90
32322;DHT22;61553;48.994;8.940;2023-12-22T15:11:20;9.20;99.90
32322;DHT22;61553;48.994;8.940;2023-12-22T15:13:46;9.20;99.90
32322;DHT22;61553;48.994;8.940;2023-12-22T15:16:11;9.20;99.90
32322;DHT22;61553;48.994;8.940;2023-12-22T15:18:37;9.20;99.90
32322;DHT22;61553;48.994;8.940;2023-12-22T15:21:03;9.20;99.90
32322;DHT22;61553;48.994;8.940;2023-12-22T15:23:29;9.20;99.90
32322;DHT22;61553;48.994;8.940;2023-12-22T15:25:57;9.20;99.90
32322;DHT22;61553;48.994;8.940;2023-12-22T15:28:23;9.10;99.90
32322;DHT22;61553;48.994;8.940;2023-12-22T15:30:49;9.10;99.90
32322;DHT22;61553;48.994;8.940;2023-12-22T15:33:14;9.10;99.90
32322;DHT22;61553;48.994;8.940;2023-12-22T15:35:40;9.20;99.90
32322;DHT22;61553;48.994;8.940;2023-12-22T15:38:05;9.20;99.90
32322;DHT22;61553;48.994;8.940;2023-12-22T15:40:31;9.20;99.90
32322;DHT22;61553;48.994;8.940;2023-12-22T15:42:57;9.20;99.90
32322;DHT22;61553;48.994;8.940;2023-12-22T15:45:22;9.20;99.90
32322;DHT22;61553;48.994;8.940;2023-12-22T15:47:48;9.20;99.90
32322;DHT22;61553;48.994;8.940;2023-12-22T15:50:13;9.20;99.90
32322;DHT22;61553;48.994;8.940;2023-12-22T15:52:41;9.20;99.90